Time;durP1;ratioP1;P1;durP2;ratioP2;P2;SDS_P1;SDS_P2;PMS_P1;PMS_P2;Temp;Humidity;BMP_temperature;BMP_pressure;BME280_temperature;BME280_humidity;BME280_pressure;Samples;Min_cycle;Max_cycle;Signal;HPM_P1;HPM_P2
2021/04/28 00:01:24;;;;;;;;;;;;;;;;;;5040409;28;1035;-57
2021/04/28 00:03:49;;;;;;;;;;;;;;;;;;5048127;28;799;-57
2021/04/28 00:06:15;;;;;;;;;;;;;;;;;;5047100;28;918;-56
2021/04/28 00:08:41;;;;;;;;;;;;;;;;;;5048812;28;908;-57
2021/04/28 00:11:06;;;;;;;;;;;;;;;;;;5049351;28;836;-57
2021/04/28 00:13:32;;;;;;;;;;;;;;;;;;5048646;28;818;-57
2021/04/28 00:15:57;;;;;;;;;;;;;;;;;;5048445;28;910;-58
2021/04/28 00:18:23;;;;;;;;;;;;;;;;;;5046333;28;1914;-57
2021/04/28 00:20:49;;;;;;;;;;;;;;;;;;5048672;28;878;-59
2021/04/28 00:23:14;;;;;;;;;;;;;;;;;;5047071;28;843;-60
2021/04/28 00:25:40;;;;;;;;;;;;;;;;;;5049387;28;831;-59
2021/04/28 00:28:06;;;;;;;;;;;;;;;;;;5048795;28;831;-58
2021/04/28 00:30:32;;;;;;;;;;;;;;;;;;5047898;28;831;-56
2021/04/28 00:32:58;;;;;;;;;;;;;;;;;;5047739;28;811;-57
2021/04/28 00:35:23;;;;;;;;;;;;;;;;;;5048418;28;914;-58
2021/04/28 00:37:50;;;;;;;;;;;;;;;;;;5048401;28;1906;-60
2021/04/28 00:40:19;;;;;;;;;;;;;;;;;;5048377;28;934;-59
2021/04/28 00:42:44;;;;;;;;;;;;;;;;;;5048098;28;859;-61
2021/04/28 00:45:11;;;;;;;;;;;;;;;;;;5048511;28;890;-61
2021/04/28 00:47:36;;;;;;;;;;;;;;;;;;5048550;28;937;-58
2021/04/28 00:50:03;;;;;;;;;;;;;;;;;;5046930;28;937;-60
2021/04/28 00:52:29;;;;;;;;;;;;;;;;;;5048328;28;870;-59
2021/04/28 00:54:55;;;;;;;;;;;;;;;;;;5047764;28;886;-59
2021/04/28 00:57:21;;;;;;;;;;;;;;;;;;5037418;28;2609;-58
2021/04/28 00:59:46;;;;;;;;;;;;;;;;;;5019237;28;1898;-57
2021/04/28 01:02:12;;;;;;;;;;;;;;;;;;5045374;28;1087;-61
2021/04/28 01:04:37;;;;;;;;;;;;;;;;;;5049103;28;873;-59
2021/04/28 01:07:05;;;;;;;;;;;;;;;;;;5047395;28;914;-59
2021/04/28 01:09:31;;;;;;;;;;;;;;;;;;5047034;28;890;-61
2021/04/28 01:11:57;;;;;;;;;;;;;;;;;;5046975;28;866;-58
2021/04/28 01:14:22;;;;;;;;;;;;;;;;;;5046109;28;1463;-60
2021/04/28 01:16:47;;;;;;;;;;;;;;;;;;5047346;28;910;-60
2021/04/28 01:19:13;;;;;;;;;;;;;;;;;;5046889;28;1977;-58
2021/04/28 01:21:39;;;;;;;;;;;;;;;;;;5048297;28;842;-62
2021/04/28 01:24:04;;;;;;;;;;;;;;;;;;5047719;28;840;-59
2021/04/28 01:26:30;;;;;;;;;;;;;;;;;;5044120;28;1082;-60
2021/04/28 01:28:58;;;;;;;;;;;;;;;;;;5047105;28;910;-61
2021/04/28 01:31:25;;;;;;;;;;;;;;;;;;5047192;28;823;-59
2021/04/28 01:33:55;;;;;;;;;;;;;;;;;;5015744;28;2522;-59
2021/04/28 01:36:21;;;;;;;;;;;;;;;;;;5027157;28;850;-61
2021/04/28 01:38:50;;;;;;;;;;;;;;;;;;5026797;28;1902;-62
2021/04/28 01:41:15;;;;;;;;;;;;;;;;;;5026870;28;804;-60
2021/04/28 01:43:41;;;;;;;;;;;;;;;;;;5027402;28;846;-57
2021/04/28 01:46:08;;;;;;;;;;;;;;;;;;5028412;28;882;-61
2021/04/28 01:48:35;;;;;;;;;;;;;;;;;;5028720;28;901;-60
2021/04/28 01:51:01;;;;;;;;;;;;;;;;;;5027180;28;812;-61
2021/04/28 01:53:26;;;;;;;;;;;;;;;;;;5027103;28;807;-59
2021/04/28 01:55:53;;;;;;;;;;;;;;;;;;5027193;28;882;-61
2021/04/28 01:58:19;;;;;;;;;;;;;;;;;;5026582;28;1906;-58
2021/04/28 02:00:45;;;;;;;;;;;;;;;;;;5033458;28;1237;-59
2021/04/28 02:03:11;;;;;;;;;;;;;;;;;;5047407;28;795;-57
2021/04/28 02:05:36;;;;;;;;;;;;;;;;;;5047658;28;918;-59
2021/04/28 02:08:02;;;;;;;;;;;;;;;;;;5046917;28;878;-60
2021/04/28 02:10:27;;;;;;;;;;;;;;;;;;5046834;28;839;-61
2021/04/28 02:12:53;;;;;;;;;;;;;;;;;;5046384;28;890;-61
2021/04/28 02:15:20;;;;;;;;;;;;;;;;;;5046195;28;847;-60
2021/04/28 02:17:49;;;;;;;;;;;;;;;;;;5046844;28;1995;-62
2021/04/28 02:20:15;;;;;;;;;;;;;;;;;;5046421;28;835;-61
2021/04/28 02:22:41;;;;;;;;;;;;;;;;;;5046452;28;830;-59
2021/04/28 02:25:07;;;;;;;;;;;;;;;;;;5047307;28;850;-61
2021/04/28 02:27:34;;;;;;;;;;;;;;;;;;5044990;28;1355;-61
2021/04/28 02:29:59;;;;;;;;;;;;;;;;;;5046040;28;845;-62
2021/04/28 02:32:25;;;;;;;;;;;;;;;;;;5045964;28;808;-61
2021/04/28 02:34:50;;;;;;;;;;;;;;;;;;5045875;28;844;-60
2021/04/28 02:37:18;;;;;;;;;;;;;;;;;;5045572;28;875;-61
2021/04/28 02:39:46;;;;;;;;;;;;;;;;;;5045603;28;1959;-60
2021/04/28 02:42:11;;;;;;;;;;;;;;;;;;5045566;28;846;-56
2021/04/28 02:44:37;;;;;;;;;;;;;;;;;;5044841;28;1454;-59
2021/04/28 02:47:03;;;;;;;;;;;;;;;;;;5045772;28;906;-58
2021/04/28 02:49:30;;;;;;;;;;;;;;;;;;5046753;28;834;-57
2021/04/28 02:51:56;;;;;;;;;;;;;;;;;;5045830;28;807;-58
2021/04/28 02:54:22;;;;;;;;;;;;;;;;;;5045293;28;822;-56
2021/04/28 02:56:51;;;;;;;;;;;;;;;;;;5045632;28;835;-58
2021/04/28 02:59:18;;;;;;;;;;;;;;;;;;5045809;28;1989;-56
2021/04/28 03:01:43;;;;;;;;;;;;;;;;;;5031021;28;1110;-57
2021/04/28 03:04:09;;;;;;;;;;;;;;;;;;5025327;28;918;-56
2021/04/28 03:06:35;;;;;;;;;;;;;;;;;;5026179;28;901;-59
2021/04/28 03:09:01;;;;;;;;;;;;;;;;;;5025187;28;803;-60
2021/04/28 03:11:27;;;;;;;;;;;;;;;;;;5025803;28;828;-60
2021/04/28 03:13:52;;;;;;;;;;;;;;;;;;5025669;28;898;-57
2021/04/28 03:16:18;;;;;;;;;;;;;;;;;;5025453;28;945;-58
2021/04/28 03:18:44;;;;;;;;;;;;;;;;;;5025288;28;1979;-58
2021/04/28 03:21:11;;;;;;;;;;;;;;;;;;5026197;28;894;-58
2021/04/28 03:23:36;;;;;;;;;;;;;;;;;;5026503;28;891;-58
2021/04/28 03:26:02;;;;;;;;;;;;;;;;;;5027808;28;1004;-59
2021/04/28 03:28:27;;;;;;;;;;;;;;;;;;5025801;28;885;-60
2021/04/28 03:30:53;;;;;;;;;;;;;;;;;;5025826;28;838;-57
2021/04/28 03:33:18;;;;;;;;;;;;;;;;;;5025809;28;905;-58
2021/04/28 03:35:44;;;;;;;;;;;;;;;;;;5025714;28;918;-58
2021/04/28 03:38:09;;;;;;;;;;;;;;;;;;5026344;28;1894;-57
2021/04/28 03:40:35;;;;;;;;;;;;;;;;;;5024775;28;861;-56
2021/04/28 03:43:00;;;;;;;;;;;;;;;;;;5025150;28;896;-59
2021/04/28 03:45:25;;;;;;;;;;;;;;;;;;5024883;28;843;-58
2021/04/28 03:47:51;;;;;;;;;;;;;;;;;;5025235;28;847;-58
2021/04/28 03:50:16;;;;;;;;;;;;;;;;;;5025724;28;807;-58
2021/04/28 03:52:41;;;;;;;;;;;;;;;;;;5025419;28;906;-56
2021/04/28 03:55:08;;;;;;;;;;;;;;;;;;5025956;28;855;-59
2021/04/28 03:57:33;;;;;;;;;;;;;;;;;;5025618;28;820;-57
2021/04/28 03:59:58;;;;;;;;;;;;;;;;;;5025170;28;1983;-59
2021/04/28 04:02:24;;;;;;;;;;;;;;;;;;5044755;28;933;-56
2021/04/28 04:04:49;;;;;;;;;;;;;;;;;;5045095;28;799;-59
2021/04/28 04:07:15;;;;;;;;;;;;;;;;;;5045353;28;831;-57
2021/04/28 04:09:40;;;;;;;;;;;;;;;;;;5045436;28;906;-58
2021/04/28 04:12:06;;;;;;;;;;;;;;;;;;5045846;28;882;-59
2021/04/28 04:14:31;;;;;;;;;;;;;;;;;;5045333;28;838;-57
2021/04/28 04:16:56;;;;;;;;;;;;;;;;;;5044759;28;907;-57
2021/04/28 04:19:22;;;;;;;;;;;;;;;;;;5044846;28;1898;-55
2021/04/28 04:21:47;;;;;;;;;;;;;;;;;;5047665;28;823;-60
2021/04/28 04:24:12;;;;;;;;;;;;;;;;;;5048175;28;819;-56
2021/04/28 04:26:38;;;;;;;;;;;;;;;;;;5048879;28;1066;-59
2021/04/28 04:29:04;;;;;;;;;;;;;;;;;;5048425;28;842;-57
2021/04/28 04:31:29;;;;;;;;;;;;;;;;;;5048366;28;887;-56
2021/04/28 04:33:55;;;;;;;;;;;;;;;;;;5048512;28;950;-57
2021/04/28 04:36:20;;;;;;;;;;;;;;;;;;5048294;28;969;-56
2021/04/28 04:38:45;;;;;;;;;;;;;;;;;;5047631;28;1902;-62
2021/04/28 04:41:11;;;;;;;;;;;;;;;;;;5047969;28;905;-57
2021/04/28 04:43:36;;;;;;;;;;;;;;;;;;5048304;28;799;-59
2021/04/28 04:46:02;;;;;;;;;;;;;;;;;;5047654;28;913;-60
2021/04/28 04:48:27;;;;;;;;;;;;;;;;;;5046570;28;822;-59
2021/04/28 04:50:53;;;;;;;;;;;;;;;;;;5049466;28;870;-56
2021/04/28 04:53:18;;;;;;;;;;;;;;;;;;5048354;28;889;-57
2021/04/28 04:55:44;;;;;;;;;;;;;;;;;;5048038;28;866;-58
2021/04/28 04:58:09;;;;;;;;;;;;;;;;;;5048910;28;1910;-60
2021/04/28 05:00:34;;;;;;;;;;;;;;;;;;5041441;28;1127;-57
2021/04/28 05:03:00;;;;;;;;;;;;;;;;;;5028079;28;831;-58
2021/04/28 05:05:25;;;;;;;;;;;;;;;;;;5026807;28;1466;-60
2021/04/28 05:07:51;;;;;;;;;;;;;;;;;;5027791;28;831;-59
2021/04/28 05:10:16;;;;;;;;;;;;;;;;;;5027141;28;878;-57
2021/04/28 05:12:46;;;;;;;;;;;;;;;;;;5026665;28;759;-60
2021/04/28 05:15:12;;;;;;;;;;;;;;;;;;5027878;28;855;-58
2021/04/28 05:17:37;;;;;;;;;;;;;;;;;;5028456;28;1890;-59
2021/04/28 05:20:03;;;;;;;;;;;;;;;;;;5026687;28;812;-61
2021/04/28 05:22:28;;;;;;;;;;;;;;;;;;5026996;28;1274;-62
2021/04/28 05:24:54;;;;;;;;;;;;;;;;;;5029187;28;1023;-61
2021/04/28 05:27:19;;;;;;;;;;;;;;;;;;5026301;28;957;-60
2021/04/28 05:29:45;;;;;;;;;;;;;;;;;;5027380;28;835;-59
2021/04/28 05:32:10;;;;;;;;;;;;;;;;;;5026986;28;946;-58
2021/04/28 05:34:36;;;;;;;;;;;;;;;;;;5027301;28;933;-60
2021/04/28 05:37:02;;;;;;;;;;;;;;;;;;5027306;28;862;-61
2021/04/28 05:39:27;;;;;;;;;;;;;;;;;;5027022;28;1886;-60
2021/04/28 05:41:53;;;;;;;;;;;;;;;;;;5027145;28;955;-61
2021/04/28 05:44:19;;;;;;;;;;;;;;;;;;5026605;28;855;-62
2021/04/28 05:46:47;;;;;;;;;;;;;;;;;;5026646;28;839;-60
2021/04/28 05:49:14;;;;;;;;;;;;;;;;;;5026401;28;1079;-58
2021/04/28 05:51:39;;;;;;;;;;;;;;;;;;5027771;28;858;-62
2021/04/28 05:54:05;;;;;;;;;;;;;;;;;;5026695;28;907;-62
2021/04/28 05:56:31;;;;;;;;;;;;;;;;;;5027107;28;859;-61
2021/04/28 05:58:56;;;;;;;;;;;;;;;;;;5027147;28;1967;-61
2021/04/28 06:01:21;;;;;;;;;;;;;;;;;;5038180;28;1122;-62
2021/04/28 06:03:47;;;;;;;;;;;;;;;;;;5045903;28;836;-62
2021/04/28 06:06:12;;;;;;;;;;;;;;;;;;5046525;28;823;-62
2021/04/28 06:08:38;;;;;;;;;;;;;;;;;;5046709;28;819;-63
2021/04/28 06:11:03;;;;;;;;;;;;;;;;;;5044578;28;850;-57
2021/04/28 06:13:29;;;;;;;;;;;;;;;;;;5046105;28;894;-57
2021/04/28 06:15:54;;;;;;;;;;;;;;;;;;5046095;28;808;-57
2021/04/28 06:18:19;;;;;;;;;;;;;;;;;;5045257;28;1885;-58
2021/04/28 06:20:45;;;;;;;;;;;;;;;;;;5045748;28;823;-59
2021/04/28 06:23:10;;;;;;;;;;;;;;;;;;5047008;28;831;-58
2021/04/28 06:25:36;;;;;;;;;;;;;;;;;;5047606;28;647;-60
2021/04/28 06:28:01;;;;;;;;;;;;;;;;;;5046632;28;819;-57
2021/04/28 06:30:27;;;;;;;;;;;;;;;;;;5046646;28;858;-59
2021/04/28 06:32:52;;;;;;;;;;;;;;;;;;5046635;28;965;-57
2021/04/28 06:35:18;;;;;;;;;;;;;;;;;;5046193;28;906;-60
2021/04/28 06:37:43;;;;;;;;;;;;;;;;;;5039806;28;2049;-57
2021/04/28 06:40:11;;;;;;;;;;;;;;;;;;5026963;28;1609;-57
2021/04/28 06:42:37;;;;;;;;;;;;;;;;;;5027045;28;1699;-60
2021/04/28 06:45:03;;;;;;;;;;;;;;;;;;5025310;28;1145;-57
2021/04/28 06:47:28;;;;;;;;;;;;;;;;;;5025057;28;1433;-58
2021/04/28 06:49:54;;;;;;;;;;;;;;;;;;5025498;28;1068;-60
2021/04/28 06:52:20;;;;;;;;;;;;;;;;;;5025721;28;1190;-58
2021/04/28 06:54:45;;;;;;;;;;;;;;;;;;5025507;28;1449;-57
2021/04/28 06:57:11;;;;;;;;;;;;;;;;;;5026060;28;1247;-57
2021/04/28 06:59:36;;;;;;;;;;;;;;;;;;5027826;28;1965;-57
2021/04/28 07:02:01;;;;;;;;;;;;;;;;;;5035465;28;1262;-57
2021/04/28 07:04:27;;;;;;;;;;;;;;;;;;5026194;28;1172;-59
2021/04/28 07:06:53;;;;;;;;;;;;;;;;;;5028091;28;1324;-58
2021/04/28 07:09:18;;;;;;;;;;;;;;;;;;5005909;28;843;-59
2021/04/28 07:11:44;;;;;;;;;;;;;;;;;;5024957;28;1536;-61
2021/04/28 07:14:10;;;;;;;;;;;;;;;;;;5026321;28;887;-57
2021/04/28 07:16:35;;;;;;;;;;;;;;;;;;5025216;28;828;-60
2021/04/28 07:19:01;;;;;;;;;;;;;;;;;;5027663;28;1898;-60
2021/04/28 07:21:26;;;;;;;;;;;;;;;;;;5025538;28;902;-56
2021/04/28 07:23:52;;;;;;;;;;;;;;;;;;5025125;28;843;-60
2021/04/28 07:26:17;;;;;;;;;;;;;;;;;;5025144;28;835;-56
2021/04/28 07:28:48;;;;;;;;;;;;;;;;;;5024874;28;839;-58
2021/04/28 07:31:13;;;;;;;;;;;;;;;;;;5025388;28;855;-57
2021/04/28 07:33:39;;;;;;;;;;;;;;;;;;5026169;28;807;-57
2021/04/28 07:36:04;;;;;;;;;;;;;;;;;;5025308;28;839;-58
2021/04/28 07:38:30;;;;;;;;;;;;;;;;;;5025808;28;1898;-57
2021/04/28 07:40:55;;;;;;;;;;;;;;;;;;5023902;28;1307;-56
2021/04/28 07:43:20;;;;;;;;;;;;;;;;;;5024041;28;1225;-59
2021/04/28 07:45:46;;;;;;;;;;;;;;;;;;5025003;28;1548;-57
2021/04/28 07:48:14;;;;;;;;;;;;;;;;;;5025206;28;831;-56
2021/04/28 07:50:39;;;;;;;;;;;;;;;;;;5057672;28;654;-57
2021/04/28 07:53:05;;;;;;;;;;;;;;;;;;5025814;28;831;-56
2021/04/28 07:55:31;;;;;;;;;;;;;;;;;;5027317;28;902;-57
2021/04/28 07:57:59;;;;;;;;;;;;;;;;;;5028776;28;1975;-58
2021/04/28 08:00:27;;;;;;;;;;;;;;;;;;5032560;28;1083;-57
2021/04/28 08:02:52;;;;;;;;;;;;;;;;;;5046119;28;1170;-59
2021/04/28 08:05:18;;;;;;;;;;;;;;;;;;5028665;28;1096;-58
2021/04/28 08:07:43;;;;;;;;;;;;;;;;;;5028704;28;1274;-56
2021/04/28 08:10:09;;;;;;;;;;;;;;;;;;5029703;28;914;-56
2021/04/28 08:12:35;;;;;;;;;;;;;;;;;;5027774;28;894;-57
2021/04/28 08:15:01;;;;;;;;;;;;;;;;;;5028750;28;847;-57
2021/04/28 08:17:28;;;;;;;;;;;;;;;;;;5028994;28;819;-57
2021/04/28 08:19:54;;;;;;;;;;;;;;;;;;5029072;28;1973;-57
2021/04/28 08:22:19;;;;;;;;;;;;;;;;;;5029452;28;898;-57
2021/04/28 08:24:45;;;;;;;;;;;;;;;;;;5028891;28;965;-56
2021/04/28 08:27:10;;;;;;;;;;;;;;;;;;5028496;28;1318;-57
2021/04/28 08:29:36;;;;;;;;;;;;;;;;;;5029626;28;692;-55
2021/04/28 08:32:02;;;;;;;;;;;;;;;;;;5028728;28;898;-62
2021/04/28 08:34:27;;;;;;;;;;;;;;;;;;5028991;28;892;-57
2021/04/28 08:36:52;;;;;;;;;;;;;;;;;;5028988;28;1164;-57
2021/04/28 08:39:18;;;;;;;;;;;;;;;;;;5028573;28;1890;-59
2021/04/28 08:41:46;;;;;;;;;;;;;;;;;;5028764;28;1243;-60
2021/04/28 08:44:12;;;;;;;;;;;;;;;;;;5028218;28;827;-57
2021/04/28 08:46:37;;;;;;;;;;;;;;;;;;5029565;28;1857;-59
2021/04/28 08:49:06;;;;;;;;;;;;;;;;;;5028807;28;882;-59
2021/04/28 08:51:32;;;;;;;;;;;;;;;;;;5027091;28;947;-57
2021/04/28 08:53:58;;;;;;;;;;;;;;;;;;5028417;28;835;-59
2021/04/28 08:56:24;;;;;;;;;;;;;;;;;;5028470;28;890;-62
2021/04/28 08:58:54;;;;;;;;;;;;;;;;;;5027567;28;1901;-57
2021/04/28 09:01:29;;;;;;;;;;;;;;;;;;5039134;28;1170;-58
2021/04/28 09:03:57;;;;;;;;;;;;;;;;;;5032072;28;1785;-60
2021/04/28 09:06:30;;;;;;;;;;;;;;;;;;5026971;28;1614;-63
2021/04/28 09:08:55;;;;;;;;;;;;;;;;;;5027729;28;1617;-59
2021/04/28 09:11:39;;;;;;;;;;;;;;;;;;5027710;28;1459;-60
2021/04/28 09:14:11;;;;;;;;;;;;;;;;;;5027731;28;827;-57
2021/04/28 09:16:37;;;;;;;;;;;;;;;;;;5028460;28;812;-61
2021/04/28 09:19:02;;;;;;;;;;;;;;;;;;5027823;28;2031;-60
2021/04/28 09:21:47;;;;;;;;;;;;;;;;;;5027657;28;1475;-62
2021/04/28 09:24:19;;;;;;;;;;;;;;;;;;5029066;28;1054;-64
2021/04/28 09:26:45;;;;;;;;;;;;;;;;;;5027684;28;851;-59
2021/04/28 09:29:15;;;;;;;;;;;;;;;;;;5028446;28;807;-59
2021/04/28 09:31:41;;;;;;;;;;;;;;;;;;5028181;28;847;-58
2021/04/28 09:34:06;;;;;;;;;;;;;;;;;;5028082;28;839;-57
2021/04/28 09:36:38;;;;;;;;;;;;;;;;;;5027235;28;1564;-58
2021/04/28 09:39:08;;;;;;;;;;;;;;;;;;5026815;28;2084;-60
2021/04/28 09:41:39;;;;;;;;;;;;;;;;;;5026882;28;1080;-59
2021/04/28 09:44:17;;;;;;;;;;;;;;;;;;5027524;28;1067;-59
2021/04/28 09:47:01;;;;;;;;;;;;;;;;;;5027070;28;1691;-57
2021/04/28 09:49:27;;;;;;;;;;;;;;;;;;5027284;28;816;-59
2021/04/28 09:51:58;;;;;;;;;;;;;;;;;;5027434;28;903;-58
2021/04/28 09:54:30;;;;;;;;;;;;;;;;;;5027257;28;922;-59
2021/04/28 09:56:56;;;;;;;;;;;;;;;;;;5026627;28;819;-59
2021/04/28 09:59:22;;;;;;;;;;;;;;;;;;5026831;28;2303;-61
2021/04/28 10:01:47;;;;;;;;;;;;;;;;;;5029518;28;1116;-59
2021/04/28 10:04:25;;;;;;;;;;;;;;;;;;5027124;28;1219;-58
2021/04/28 10:06:50;;;;;;;;;;;;;;;;;;5024623;28;1025;-59
2021/04/28 10:09:25;;;;;;;;;;;;;;;;;;5026368;28;1231;-58
2021/04/28 10:11:50;;;;;;;;;;;;;;;;;;5026447;28;1596;-60
2021/04/28 10:14:16;;;;;;;;;;;;;;;;;;5026131;28;827;-58
2021/04/28 10:16:42;;;;;;;;;;;;;;;;;;5026878;28;877;-57
2021/04/28 10:19:08;;;;;;;;;;;;;;;;;;5026841;28;1897;-58
2021/04/28 10:21:34;;;;;;;;;;;;;;;;;;5026477;28;854;-56
2021/04/28 10:24:00;;;;;;;;;;;;;;;;;;5026906;28;913;-56
2021/04/28 10:26:26;;;;;;;;;;;;;;;;;;5026721;28;937;-56
2021/04/28 10:28:51;;;;;;;;;;;;;;;;;;5026315;28;812;-56
2021/04/28 10:31:18;;;;;;;;;;;;;;;;;;5026831;28;926;-57
2021/04/28 10:33:44;;;;;;;;;;;;;;;;;;5026627;28;890;-57
2021/04/28 10:36:10;;;;;;;;;;;;;;;;;;5027356;28;838;-56
2021/04/28 10:38:35;;;;;;;;;;;;;;;;;;5025293;28;1963;-59
2021/04/28 10:41:01;;;;;;;;;;;;;;;;;;5026184;28;946;-60
2021/04/28 10:43:36;;;;;;;;;;;;;;;;;;5025967;28;882;-58
2021/04/28 10:46:18;;;;;;;;;;;;;;;;;;5026316;28;1652;-58
2021/04/28 10:48:44;;;;;;;;;;;;;;;;;;5026305;28;827;-58
2021/04/28 10:51:29;;;;;;;;;;;;;;;;;;5027289;28;830;-58
2021/04/28 10:54:14;;;;;;;;;;;;;;;;;;5025681;28;1175;-57
2021/04/28 10:56:57;;;;;;;;;;;;;;;;;;5026401;28;1167;-57
2021/04/28 10:59:34;;;;;;;;;;;;;;;;;;5025436;28;1969;-57
2021/04/28 11:02:06;;;;;;;;;;;;;;;;;;5028357;28;1183;-57
2021/04/28 11:04:32;;;;;;;;;;;;;;;;;;5023952;28;1153;-59
2021/04/28 11:06:57;;;;;;;;;;;;;;;;;;5025720;28;1162;-61
2021/04/28 11:09:25;;;;;;;;;;;;;;;;;;5024915;28;1297;-58
2021/04/28 11:11:53;;;;;;;;;;;;;;;;;;5025055;28;1166;-64
2021/04/28 11:14:22;;;;;;;;;;;;;;;;;;5024644;28;1399;-57
2021/04/28 11:17:20;;;;;;;;;;;;;;;;;;5022357;28;1257;-62
2021/04/28 11:19:50;;;;;;;;;;;;;;;;;;5025617;28;1906;-58
2021/04/28 11:22:15;;;;;;;;;;;;;;;;;;5026019;28;891;-60
2021/04/28 11:24:51;;;;;;;;;;;;;;;;;;5027008;28;1452;-60
2021/04/28 11:27:35;;;;;;;;;;;;;;;;;;5023947;28;1194;-67
2021/04/28 11:30:01;;;;;;;;;;;;;;;;;;5025094;28;1242;-57
2021/04/28 11:32:27;;;;;;;;;;;;;;;;;;5027259;28;1190;-62
2021/04/28 11:34:53;;;;;;;;;;;;;;;;;;5026155;28;1510;-58
2021/04/28 11:37:19;;;;;;;;;;;;;;;;;;5028627;28;1151;-61
2021/04/28 11:39:46;;;;;;;;;;;;;;;;;;5027084;28;1961;-57
2021/04/28 11:42:14;;;;;;;;;;;;;;;;;;5028570;28;1160;-58
2021/04/28 11:44:44;;;;;;;;;;;;;;;;;;5029703;28;1227;-57
2021/04/28 11:47:16;;;;;;;;;;;;;;;;;;5029367;28;1381;-63
2021/04/28 11:49:43;;;;;;;;;;;;;;;;;;5027479;28;1188;-58
2021/04/28 11:52:09;;;;;;;;;;;;;;;;;;5028900;28;1230;-57
2021/04/28 11:54:35;;;;;;;;;;;;;;;;;;5026102;28;1072;-58
2021/04/28 11:57:00;;;;;;;;;;;;;;;;;;5028547;28;1152;-61
2021/04/28 11:59:27;;;;;;;;;;;;;;;;;;5028670;28;1981;-58
2021/04/28 12:01:57;;;;;;;;;;;;;;;;;;5044851;28;1146;-57
2021/04/28 12:04:42;;;;;;;;;;;;;;;;;;5048942;28;866;-59
2021/04/28 12:07:11;;;;;;;;;;;;;;;;;;5039437;28;2135;-57
2021/04/28 12:09:38;;;;;;;;;;;;;;;;;;5026424;28;1103;-58
2021/04/28 12:12:06;;;;;;;;;;;;;;;;;;5032968;28;1163;-58
2021/04/28 12:14:31;;;;;;;;;;;;;;;;;;5029302;28;1215;-60
2021/04/28 12:16:57;;;;;;;;;;;;;;;;;;5030462;28;1226;-60
2021/04/28 12:19:23;;;;;;;;;;;;;;;;;;5028890;28;1898;-60
2021/04/28 12:21:52;;;;;;;;;;;;;;;;;;5025952;28;2103;-60
2021/04/28 12:24:27;;;;;;;;;;;;;;;;;;5026327;28;1501;-56
2021/04/28 12:27:05;;;;;;;;;;;;;;;;;;5027526;28;978;-62
2021/04/28 12:29:31;;;;;;;;;;;;;;;;;;5026949;28;1719;-55
2021/04/28 12:31:57;;;;;;;;;;;;;;;;;;5027460;28;859;-56
2021/04/28 12:34:22;;;;;;;;;;;;;;;;;;5026090;28;823;-61
2021/04/28 12:36:48;;;;;;;;;;;;;;;;;;5027347;28;1666;-61
2021/04/28 12:39:26;;;;;;;;;;;;;;;;;;5027366;28;1898;-64
2021/04/28 12:41:53;;;;;;;;;;;;;;;;;;5026360;28;966;-62
2021/04/28 12:44:18;;;;;;;;;;;;;;;;;;5026867;28;1113;-61
2021/04/28 12:46:45;;;;;;;;;;;;;;;;;;5027098;28;1544;-63
2021/04/28 12:49:10;;;;;;;;;;;;;;;;;;5033560;28;1258;-60
2021/04/28 12:51:42;;;;;;;;;;;;;;;;;;5025246;28;938;-59
2021/04/28 12:54:08;;;;;;;;;;;;;;;;;;5028563;28;1497;-65
2021/04/28 12:56:39;;;;;;;;;;;;;;;;;;5026875;28;1239;-62
2021/04/28 12:59:13;;;;;;;;;;;;;;;;;;5027454;28;2015;-63
2021/04/28 13:01:39;;;;;;;;;;;;;;;;;;5032306;28;1083;-57
2021/04/28 13:04:04;;;;;;;;;;;;;;;;;;5027116;28;2455;-59
2021/04/28 13:06:30;;;;;;;;;;;;;;;;;;5027635;28;862;-56
2021/04/28 13:08:55;;;;;;;;;;;;;;;;;;5034804;28;1269;-58
2021/04/28 13:11:28;;;;;;;;;;;;;;;;;;5027864;28;859;-56
2021/04/28 13:13:56;;;;;;;;;;;;;;;;;;5036936;28;823;-60
2021/04/28 13:16:34;;;;;;;;;;;;;;;;;;5045494;28;855;-57
2021/04/28 13:19:04;;;;;;;;;;;;;;;;;;5042887;28;1985;-57
2021/04/28 13:21:34;;;;;;;;;;;;;;;;;;5043758;28;1190;-57
2021/04/28 13:24:02;;;;;;;;;;;;;;;;;;5037795;28;1273;-57
2021/04/28 13:26:27;;;;;;;;;;;;;;;;;;5027179;28;1530;-57
2021/04/28 13:28:54;;;;;;;;;;;;;;;;;;5028288;28;1576;-57
2021/04/28 13:31:23;;;;;;;;;;;;;;;;;;5029360;28;788;-60
2021/04/28 13:33:50;;;;;;;;;;;;;;;;;;5045151;28;819;-60
2021/04/28 13:36:28;;;;;;;;;;;;;;;;;;5045373;28;816;-59
2021/04/28 13:38:55;;;;;;;;;;;;;;;;;;5031159;28;1973;-56
2021/04/28 13:41:20;;;;;;;;;;;;;;;;;;5024994;28;1084;-56
2021/04/28 13:43:47;;;;;;;;;;;;;;;;;;5026897;28;1523;-57
2021/04/28 13:46:12;;;;;;;;;;;;;;;;;;5026386;28;1500;-61
2021/04/28 13:48:39;;;;;;;;;;;;;;;;;;5028067;28;1155;-60
2021/04/28 13:51:05;;;;;;;;;;;;;;;;;;5027589;28;843;-57
2021/04/28 13:53:30;;;;;;;;;;;;;;;;;;5026250;28;1159;-59
2021/04/28 13:55:56;;;;;;;;;;;;;;;;;;5027433;28;898;-56
2021/04/28 13:58:21;;;;;;;;;;;;;;;;;;5024085;28;1973;-57
2021/04/28 14:00:47;;;;;;;;;;;;;;;;;;5030418;28;1564;-58
2021/04/28 14:03:12;;;;;;;;;;;;;;;;;;5032323;28;1513;-58
2021/04/28 14:05:37;;;;;;;;;;;;;;;;;;5035130;28;906;-60
2021/04/28 14:08:03;;;;;;;;;;;;;;;;;;5035248;28;1432;-58
2021/04/28 14:10:29;;;;;;;;;;;;;;;;;;5030699;28;851;-60
2021/04/28 14:12:55;;;;;;;;;;;;;;;;;;5042034;28;935;-56
2021/04/28 14:15:20;;;;;;;;;;;;;;;;;;5032295;28;1709;-61
2021/04/28 14:17:45;;;;;;;;;;;;;;;;;;5033680;28;895;-57
2021/04/28 14:20:12;;;;;;;;;;;;;;;;;;5031440;28;1956;-57
2021/04/28 14:22:37;;;;;;;;;;;;;;;;;;5029645;28;866;-57
2021/04/28 14:25:04;;;;;;;;;;;;;;;;;;5030496;28;946;-58
2021/04/28 14:27:29;;;;;;;;;;;;;;;;;;5029890;28;1004;-57
2021/04/28 14:29:54;;;;;;;;;;;;;;;;;;5033283;28;1025;-58
2021/04/28 14:32:20;;;;;;;;;;;;;;;;;;5029561;28;1591;-58
2021/04/28 14:34:45;;;;;;;;;;;;;;;;;;5038738;28;803;-56
2021/04/28 14:37:11;;;;;;;;;;;;;;;;;;5034680;28;1297;-61
2021/04/28 14:39:36;;;;;;;;;;;;;;;;;;5039355;28;1965;-60
2021/04/28 14:42:02;;;;;;;;;;;;;;;;;;5039155;28;1080;-60
2021/04/28 14:44:27;;;;;;;;;;;;;;;;;;5034325;28;808;-56
2021/04/28 14:46:52;;;;;;;;;;;;;;;;;;5034807;28;1815;-58
2021/04/28 14:49:18;;;;;;;;;;;;;;;;;;5032549;28;887;-58
2021/04/28 14:51:43;;;;;;;;;;;;;;;;;;5032467;28;910;-57
2021/04/28 14:54:09;;;;;;;;;;;;;;;;;;5031899;28;855;-57
2021/04/28 14:56:36;;;;;;;;;;;;;;;;;;5033303;28;847;-57
2021/04/28 14:59:02;;;;;;;;;;;;;;;;;;5028691;28;1902;-61
2021/04/28 15:01:27;;;;;;;;;;;;;;;;;;5035509;28;1027;-58
2021/04/28 15:03:55;;;;;;;;;;;;;;;;;;5029075;28;965;-56
2021/04/28 15:06:21;;;;;;;;;;;;;;;;;;5031260;28;1607;-59
2021/04/28 15:08:47;;;;;;;;;;;;;;;;;;5026677;28;1148;-56
2021/04/28 15:11:12;;;;;;;;;;;;;;;;;;5031063;28;1195;-55
2021/04/28 15:13:39;;;;;;;;;;;;;;;;;;5029179;28;901;-55
2021/04/28 15:16:06;;;;;;;;;;;;;;;;;;5029287;28;1083;-64
2021/04/28 15:18:33;;;;;;;;;;;;;;;;;;5034864;28;1902;-66
2021/04/28 15:21:01;;;;;;;;;;;;;;;;;;5032468;28;862;-57
2021/04/28 15:23:27;;;;;;;;;;;;;;;;;;5033431;28;847;-57
2021/04/28 15:25:53;;;;;;;;;;;;;;;;;;5031222;28;879;-68
2021/04/28 15:28:19;;;;;;;;;;;;;;;;;;5029222;28;1716;-65
2021/04/28 15:30:44;;;;;;;;;;;;;;;;;;5036563;28;1486;-57
2021/04/28 15:33:11;;;;;;;;;;;;;;;;;;5032453;28;1449;-62
2021/04/28 15:35:39;;;;;;;;;;;;;;;;;;5027748;28;1389;-55
2021/04/28 15:38:04;;;;;;;;;;;;;;;;;;5030798;28;1902;-58
2021/04/28 15:40:30;;;;;;;;;;;;;;;;;;5031931;28;1159;-55
2021/04/28 15:42:55;;;;;;;;;;;;;;;;;;5032176;28;1326;-54
2021/04/28 15:45:21;;;;;;;;;;;;;;;;;;5034988;28;1591;-59
2021/04/28 15:47:47;;;;;;;;;;;;;;;;;;5034498;28;889;-55
2021/04/28 15:50:12;;;;;;;;;;;;;;;;;;5034256;28;834;-56
2021/04/28 15:52:38;;;;;;;;;;;;;;;;;;5035252;28;1198;-63
2021/04/28 15:55:03;;;;;;;;;;;;;;;;;;5034350;28;1075;-55
2021/04/28 15:57:29;;;;;;;;;;;;;;;;;;5032824;28;1121;-57
2021/04/28 15:59:54;;;;;;;;;;;;;;;;;;5033480;28;1910;-60
2021/04/28 16:02:21;;;;;;;;;;;;;;;;;;5033353;28;1449;-59
2021/04/28 16:04:49;;;;;;;;;;;;;;;;;;5032502;28;1187;-55
2021/04/28 16:07:15;;;;;;;;;;;;;;;;;;5040236;28;1671;-57
2021/04/28 16:09:41;;;;;;;;;;;;;;;;;;5026402;28;1028;-56
2021/04/28 16:12:07;;;;;;;;;;;;;;;;;;5025720;28;1036;-58
2021/04/28 16:14:32;;;;;;;;;;;;;;;;;;5025012;28;807;-57
2021/04/28 16:16:58;;;;;;;;;;;;;;;;;;5026688;28;1186;-63
2021/04/28 16:19:23;;;;;;;;;;;;;;;;;;5032177;28;1913;-56
2021/04/28 16:21:49;;;;;;;;;;;;;;;;;;5037540;28;1087;-70
2021/04/28 16:24:14;;;;;;;;;;;;;;;;;;5037163;28;1163;-61
2021/04/28 16:26:39;;;;;;;;;;;;;;;;;;5037745;28;1082;-64
2021/04/28 16:29:05;;;;;;;;;;;;;;;;;;5036519;28;1055;-58
2021/04/28 16:31:30;;;;;;;;;;;;;;;;;;5026892;28;1637;-64
2021/04/28 16:33:56;;;;;;;;;;;;;;;;;;5042215;28;824;-61
2021/04/28 16:36:21;;;;;;;;;;;;;;;;;;5024429;28;1580;-61
2021/04/28 16:38:47;;;;;;;;;;;;;;;;;;5048777;28;1886;-62
2021/04/28 16:41:12;;;;;;;;;;;;;;;;;;5035712;28;1149;-60
2021/04/28 16:43:38;;;;;;;;;;;;;;;;;;5027677;28;1573;-56
2021/04/28 16:46:03;;;;;;;;;;;;;;;;;;5031159;28;875;-58
2021/04/28 16:48:28;;;;;;;;;;;;;;;;;;5044435;28;831;-60
2021/04/28 16:50:54;;;;;;;;;;;;;;;;;;5041814;28;977;-58
2021/04/28 16:53:19;;;;;;;;;;;;;;;;;;5027716;28;1624;-55
2021/04/28 16:55:45;;;;;;;;;;;;;;;;;;5028689;28;1564;-57
2021/04/28 16:58:10;;;;;;;;;;;;;;;;;;5035945;28;1899;-59
2021/04/28 17:00:36;;;;;;;;;;;;;;;;;;5032684;28;975;-58
2021/04/28 17:03:01;;;;;;;;;;;;;;;;;;5045284;28;832;-65
2021/04/28 17:05:26;;;;;;;;;;;;;;;;;;5028374;28;867;-62
2021/04/28 17:07:52;;;;;;;;;;;;;;;;;;5028281;28;1513;-64
2021/04/28 17:10:17;;;;;;;;;;;;;;;;;;5030408;28;1115;-58